Time;durP1;ratioP1;P1;durP2;ratioP2;P2;SDS_P1;SDS_P2;PMS_P1;PMS_P2;Temp;Humidity;BMP_temperature;BMP_pressure;BME280_temperature;BME280_humidity;BME280_pressure;Samples;Min_cycle;Max_cycle;Signal;HPM_P1;HPM_P2
2023/01/18 00:01:09;;;;;;;10.00;7.50;;;5.00;99.90;;;;;;5101298;28;20525;-80
2023/01/18 00:03:41;;;;;;;10.38;7.35;;;5.00;99.90;;;;;;5089933;28;20220;-79
2023/01/18 00:06:10;;;;;;;10.52;8.82;;;5.00;99.90;;;;;;5082844;28;20531;-79
2023/01/18 00:08:38;;;;;;;24.88;12.48;;;5.00;99.90;;;;;;5077271;28;20227;-77
2023/01/18 00:11:07;;;;;;;19.50;12.85;;;4.90;99.90;;;;;;5086236;28;20224;-79
2023/01/18 00:13:35;;;;;;;18.80;11.25;;;4.90;99.90;;;;;;5082693;28;20246;-78
2023/01/18 00:16:03;;;;;;;14.07;9.88;;;4.80;99.90;;;;;;5078289;28;20232;-78
2023/01/18 00:18:34;;;;;;;11.57;9.50;;;4.90;99.90;;;;;;5080405;28;20215;-77
2023/01/18 00:21:01;;;;;;;26.65;12.73;;;4.90;99.90;;;;;;5079649;28;20227;-81
2023/01/18 00:23:29;;;;;;;18.80;13.55;;;4.80;99.90;;;;;;5084412;28;20235;-80
2023/01/18 00:26:00;;;;;;;13.60;11.25;;;4.80;99.90;;;;;;5081887;28;20610;-79
2023/01/18 00:28:29;;;;;;;14.98;11.93;;;4.90;99.90;;;;;;5095759;28;20236;-81
2023/01/18 00:30:58;;;;;;;17.65;11.85;;;4.80;99.90;;;;;;5074574;28;20227;-80
2023/01/18 00:33:25;;;;;;;14.60;11.57;;;4.80;99.90;;;;;;5097935;28;20251;-78
2023/01/18 00:35:58;;;;;;;15.80;12.27;;;4.70;99.90;;;;;;5091449;28;20250;-77
2023/01/18 00:38:26;;;;;;;22.60;12.45;;;4.70;99.90;;;;;;5101765;28;20503;-77
2023/01/18 00:40:53;;;;;;;14.80;11.10;;;4.70;99.90;;;;;;5095993;28;20215;-80
2023/01/18 00:43:38;;;;;;;18.30;11.32;;;4.60;99.90;;;;;;5089659;28;20744;-77
2023/01/18 00:46:06;;;;;;;12.57;10.38;;;4.60;99.90;;;;;;5085041;28;20219;-77
2023/01/18 00:48:33;;;;;;;13.93;12.10;;;4.60;99.90;;;;;;5097607;28;20663;-78
2023/01/18 00:51:04;;;;;;;12.57;11.27;;;4.60;99.90;;;;;;5090293;28;20238;-77
2023/01/18 00:53:32;;;;;;;21.38;12.50;;;4.60;99.90;;;;;;5088058;28;20632;-79
2023/01/18 00:55:59;;;;;;;16.00;12.82;;;4.60;99.90;;;;;;5082225;28;20227;-79
2023/01/18 00:58:27;;;;;;;16.70;11.52;;;4.50;99.90;;;;;;5077450;28;20231;-78
2023/01/18 01:00:54;;;;;;;22.73;13.35;;;4.50;99.90;;;;;;5093454;28;20344;-77
2023/01/18 01:03:22;;;;;;;22.23;13.45;;;4.50;99.90;;;;;;5080781;28;20220;-80
2023/01/18 01:08:35;;;;;;;17.33;13.85;;;4.50;99.90;;;;;;5093908;27;20302;-79
2023/01/18 01:11:07;;;;;;;12.98;10.80;;;4.50;99.90;;;;;;5091446;28;20228;-80
2023/01/18 01:27:21;;;;;;;11.85;10.40;;;4.40;99.90;;;;;;5098736;28;20236;-80
2023/01/18 01:29:51;;;;;;;18.30;12.02;;;4.40;99.90;;;;;;5109581;28;20279;-80
2023/01/18 01:32:19;;;;;;;15.48;11.00;;;4.30;99.90;;;;;;5111345;28;20249;-79
2023/01/18 01:34:48;;;;;;;15.38;10.45;;;4.40;99.90;;;;;;5110938;28;20234;-78
2023/01/18 01:37:16;;;;;;;14.55;11.18;;;4.40;99.90;;;;;;5113608;28;20236;-77
2023/01/18 01:39:45;;;;;;;16.60;10.70;;;4.30;99.90;;;;;;5112696;28;20314;-77
2023/01/18 01:42:12;;;;;;;21.30;11.45;;;4.30;99.90;;;;;;5114100;27;20227;-80
2023/01/18 01:44:48;;;;;;;13.02;9.70;;;4.30;99.90;;;;;;5107118;28;20215;-78
2023/01/18 01:47:28;;;;;;;15.48;10.00;;;4.30;99.90;;;;;;5095144;28;20672;-79
2023/01/18 01:49:59;;;;;;;11.95;9.50;;;4.20;99.90;;;;;;5084736;28;20223;-80
2023/01/18 01:52:31;;;;;;;12.55;9.88;;;4.20;99.90;;;;;;5099424;27;20660;-78
2023/01/18 01:55:08;;;;;;;11.57;10.48;;;4.20;99.90;;;;;;5114450;28;20222;-80
2023/01/18 01:57:38;;;;;;;12.90;10.02;;;4.20;99.90;;;;;;5103213;28;20238;-80
2023/01/18 02:00:09;;;;;;;10.75;9.60;;;4.20;99.90;;;;;;5094110;28;20284;-80
2023/01/18 02:02:37;;;;;;;13.13;10.90;;;4.20;99.90;;;;;;5100257;28;20219;-77
2023/01/18 02:05:08;;;;;;;13.02;11.45;;;4.20;99.90;;;;;;5100928;28;20242;-77
2023/01/18 02:07:35;;;;;;;12.63;9.88;;;4.20;99.90;;;;;;5100588;28;20280;-76
2023/01/18 02:10:06;;;;;;;16.02;10.30;;;4.30;99.90;;;;;;5108915;28;20233;-77
2023/01/18 02:12:35;;;;;;;13.48;9.40;;;4.30;99.90;;;;;;5101242;28;20246;-78
2023/01/18 02:15:04;;;;;;;13.13;9.57;;;4.30;99.90;;;;;;5098054;28;20254;-76
2023/01/18 02:17:44;;;;;;;15.98;10.10;;;4.30;99.90;;;;;;5105608;28;20224;-79
2023/01/18 02:20:39;;;;;;;10.95;8.82;;;4.30;99.90;;;;;;5097163;28;20248;-78
2023/01/18 02:23:26;;;;;;;12.45;9.38;;;4.30;99.90;;;;;;5103133;28;20302;-78
2023/01/18 02:26:32;;;;;;;10.90;9.52;;;4.20;99.90;;;;;;5104774;28;20226;-78
2023/01/18 02:29:09;;;;;;;10.93;9.48;;;4.20;99.90;;;;;;5102604;28;20226;-77
2023/01/18 02:31:42;;;;;;;12.60;10.13;;;4.30;99.90;;;;;;5099498;28;20279;-79
2023/01/18 02:34:20;;;;;;;9.95;8.90;;;4.30;99.90;;;;;;5104667;28;20250;-77
2023/01/18 02:36:56;;;;;;;10.52;9.50;;;4.30;99.90;;;;;;5101833;28;20218;-78
2023/01/18 02:39:37;;;;;;;11.70;9.07;;;4.30;99.90;;;;;;5111649;27;20467;-79
2023/01/18 02:47:48;;;;;;;12.02;8.30;;;4.40;99.90;;;;;;5004803;28;20218;-78
2023/01/18 02:50:23;;;;;;;8.70;7.88;;;4.40;99.90;;;;;;5083210;28;20239;-79
2023/01/18 02:52:52;;;;;;;12.95;9.75;;;4.40;99.90;;;;;;5093380;28;20222;-78
2023/01/18 02:55:27;;;;;;;9.82;8.82;;;4.40;99.90;;;;;;5102790;28;20222;-79
2023/01/18 02:58:00;;;;;;;11.35;10.13;;;4.40;99.90;;;;;;5105434;28;20664;-77
2023/01/18 03:00:29;;;;;;;11.75;9.32;;;4.40;99.90;;;;;;5108300;28;20257;-79
2023/01/18 03:03:00;;;;;;;9.70;8.80;;;4.40;99.90;;;;;;5113418;27;20211;-78
2023/01/18 03:05:30;;;;;;;11.10;9.13;;;4.40;99.90;;;;;;5109623;28;20250;-78
2023/01/18 03:08:08;;;;;;;15.40;13.25;;;4.40;99.90;;;;;;5093324;28;20234;-77
2023/01/18 03:10:43;;;;;;;10.52;9.48;;;4.40;99.90;;;;;;5092339;28;20233;-77
2023/01/18 03:13:23;;;;;;;8.85;8.05;;;4.40;99.90;;;;;;5092783;28;20647;-77
2023/01/18 03:15:56;;;;;;;12.23;7.63;;;4.40;99.90;;;;;;5094103;28;20310;-77
2023/01/18 03:18:32;;;;;;;9.50;8.52;;;4.40;99.90;;;;;;5093699;28;20223;-77
2023/01/18 03:21:04;;;;;;;9.55;8.57;;;4.40;99.90;;;;;;5092387;28;20219;-76
2023/01/18 03:23:41;;;;;;;12.02;8.38;;;4.40;99.90;;;;;;5095188;28;20223;-78
2023/01/18 03:26:13;;;;;;;9.32;8.18;;;4.30;99.90;;;;;;5093517;28;20629;-76
2023/01/18 03:34:24;;;;;;;10.75;7.28;;;4.40;99.90;;;;;;5093094;28;20247;-79
2023/01/18 03:36:53;;;;;;;9.13;8.13;;;4.40;99.90;;;;;;5092636;28;20318;-76
2023/01/18 03:39:27;;;;;;;11.18;8.93;;;4.40;99.90;;;;;;5092426;28;20253;-77
2023/01/18 03:41:58;;;;;;;13.23;9.27;;;4.40;99.90;;;;;;5093204;28;20227;-77
2023/01/18 03:44:33;;;;;;;15.40;8.07;;;4.40;99.90;;;;;;5092212;28;20280;-77
2023/01/18 03:47:03;;;;;;;7.90;7.10;;;4.40;99.90;;;;;;5092616;28;20613;-76
2023/01/18 03:49:31;;;;;;;9.02;8.13;;;4.40;99.90;;;;;;5092271;28;20234;-79
2023/01/18 03:52:16;;;;;;;8.95;7.32;;;4.40;99.90;;;;;;5093594;28;20227;-76
2023/01/18 03:54:51;;;;;;;7.88;7.07;;;4.40;99.90;;;;;;5092602;28;20219;-77
2023/01/18 03:57:24;;;;;;;9.57;7.78;;;4.40;99.90;;;;;;5092714;28;20222;-78
2023/01/18 03:59:52;;;;;;;11.60;8.50;;;4.40;99.90;;;;;;5093224;28;20227;-78
2023/01/18 04:02:22;;;;;;;8.40;7.60;;;4.40;99.90;;;;;;5093266;28;20238;-79
2023/01/18 04:04:56;;;;;;;7.50;6.80;;;4.40;99.90;;;;;;5092889;28;20215;-79
2023/01/18 04:07:26;;;;;;;8.30;7.05;;;4.40;99.90;;;;;;5095518;28;20665;-76
2023/01/18 04:09:53;;;;;;;11.57;7.18;;;4.40;99.90;;;;;;5092422;28;20223;-80
2023/01/18 04:12:25;;;;;;;9.35;6.03;;;4.40;99.90;;;;;;5093295;28;20227;-78
2023/01/18 04:14:52;;;;;;;9.15;7.15;;;4.50;99.90;;;;;;5105253;28;20223;-80
2023/01/18 04:17:22;;;;;;;11.18;7.18;;;4.50;99.90;;;;;;5111069;28;20269;-77
2023/01/18 04:19:50;;;;;;;8.25;7.05;;;4.50;99.90;;;;;;5104356;28;20262;-78
2023/01/18 04:22:17;;;;;;;7.53;6.82;;;4.50;99.90;;;;;;5106985;28;20307;-77
2023/01/18 04:24:44;;;;;;;6.88;6.18;;;4.40;99.90;;;;;;5111264;28;20223;-76
2023/01/18 04:27:12;;;;;;;8.70;6.43;;;4.50;99.90;;;;;;5108565;28;20235;-80
2023/01/18 04:29:39;;;;;;;6.65;6.05;;;4.50;99.90;;;;;;5104250;28;20597;-80
2023/01/18 04:32:07;;;;;;;8.15;6.38;;;4.40;99.90;;;;;;5105451;28;20306;-78
2023/01/18 04:34:36;;;;;;;6.60;5.97;;;4.50;99.90;;;;;;5108058;28;20235;-79
2023/01/18 04:37:04;;;;;;;6.75;6.03;;;4.50;99.90;;;;;;5104586;28;20666;-77
2023/01/18 04:39:31;;;;;;;7.20;5.65;;;4.50;99.90;;;;;;5104376;28;20285;-79
2023/01/18 04:41:58;;;;;;;9.75;6.68;;;4.50;99.90;;;;;;5084533;28;20231;-79
2023/01/18 04:44:25;;;;;;;6.15;5.50;;;4.60;99.90;;;;;;5083635;28;20224;-77
2023/01/18 04:46:52;;;;;;;6.18;5.57;;;4.60;99.90;;;;;;5083636;28;20231;-77
2023/01/18 04:49:19;;;;;;;8.13;6.43;;;4.50;99.90;;;;;;5080447;28;20315;-77
2023/01/18 04:51:47;;;;;;;8.70;5.53;;;4.60;99.90;;;;;;5081498;28;20628;-76
2023/01/18 04:54:17;;;;;;;8.38;6.93;;;4.60;99.90;;;;;;5081941;28;20263;-80
2023/01/18 04:56:44;;;;;;;6.40;5.75;;;4.60;99.90;;;;;;5078823;28;20299;-77
2023/01/18 04:59:15;;;;;;;7.47;5.55;;;4.50;99.90;;;;;;5078721;28;20227;-79
2023/01/18 05:01:42;;;;;;;8.38;6.68;;;4.60;99.90;;;;;;5078560;28;20224;-77
2023/01/18 05:04:09;;;;;;;7.72;6.93;;;4.60;99.90;;;;;;5078026;28;20231;-76
2023/01/18 05:06:36;;;;;;;11.77;8.15;;;4.60;99.90;;;;;;5075677;28;20346;-79
2023/01/18 05:09:05;;;;;;;12.98;8.00;;;4.50;99.90;;;;;;5080245;28;20247;-79
2023/01/18 05:11:35;;;;;;;15.00;8.82;;;4.50;99.90;;;;;;5079373;28;20219;-76
2023/01/18 05:14:02;;;;;;;14.27;8.90;;;4.50;99.90;;;;;;5078609;28;20236;-76
2023/01/18 05:16:29;;;;;;;14.57;8.52;;;4.50;99.90;;;;;;5076585;28;20228;-79
2023/01/18 05:18:59;;;;;;;13.98;9.45;;;4.50;99.90;;;;;;5075830;28;20239;-79
2023/01/18 05:21:27;;;;;;;15.38;8.27;;;4.50;99.90;;;;;;5076413;28;20247;-77
2023/01/18 05:23:58;;;;;;;12.50;9.05;;;4.50;99.90;;;;;;5075819;28;20216;-79
2023/01/18 05:26:29;;;;;;;11.25;7.60;;;4.60;99.90;;;;;;5071422;28;20219;-77
2023/01/18 05:28:57;;;;;;;10.00;8.10;;;4.60;99.90;;;;;;5084057;28;20251;-77
2023/01/18 05:31:25;;;;;;;7.70;6.97;;;4.60;99.90;;;;;;5075669;28;20297;-77
2023/01/18 05:33:52;;;;;;;9.25;7.88;;;4.60;99.90;;;;;;5077026;28;20242;-78
2023/01/18 05:36:19;;;;;;;10.35;7.88;;;4.60;99.90;;;;;;5078932;28;20220;-78
2023/01/18 05:38:47;;;;;;;7.70;6.97;;;4.60;99.90;;;;;;5067587;28;20592;-78
2023/01/18 05:41:17;;;;;;;9.15;7.40;;;4.60;99.90;;;;;;5093569;28;20235;-79
2023/01/18 05:43:46;;;;;;;9.45;7.80;;;4.60;99.90;;;;;;5077850;28;20217;-76
2023/01/18 05:46:15;;;;;;;11.35;7.78;;;4.50;99.90;;;;;;5074831;28;20307;-77
2023/01/18 05:48:44;;;;;;;8.45;7.32;;;4.50;99.90;;;;;;5074722;28;20216;-78
2023/01/18 05:51:11;;;;;;;8.63;7.78;;;4.50;99.90;;;;;;5074557;28;20226;-80
2023/01/18 05:53:39;;;;;;;7.93;7.10;;;4.50;99.90;;;;;;5075966;28;20247;-80
2023/01/18 05:56:08;;;;;;;8.48;7.55;;;4.40;99.90;;;;;;5074194;28;20673;-78
2023/01/18 05:58:38;;;;;;;8.23;7.38;;;4.40;99.90;;;;;;5076814;28;20212;-80
2023/01/18 06:01:07;;;;;;;8.88;7.75;;;4.40;99.90;;;;;;5076369;28;20228;-78
2023/01/18 06:03:35;;;;;;;10.07;7.20;;;4.40;99.90;;;;;;5076638;28;20236;-80
2023/01/18 06:06:06;;;;;;;8.77;7.40;;;4.30;99.90;;;;;;5076204;28;20253;-75
2023/01/18 06:08:33;;;;;;;9.80;6.90;;;4.30;99.90;;;;;;5077682;28;20254;-77
2023/01/18 06:13:57;;;;;;;8.30;6.38;;;4.20;99.90;;;;;;5083631;28;20220;-79
2023/01/18 06:16:25;;;;;;;9.02;6.43;;;4.20;99.90;;;;;;5075419;28;20607;-77
2023/01/18 06:18:54;;;;;;;7.78;5.75;;;4.10;99.90;;;;;;5075663;28;20296;-80
2023/01/18 06:21:21;;;;;;;8.82;7.60;;;4.10;99.90;;;;;;5076357;28;20227;-77
2023/01/18 06:23:47;;;;;;;10.80;6.93;;;4.00;99.90;;;;;;5078156;28;20223;-80
2023/01/18 06:26:15;;;;;;;7.97;6.18;;;4.00;99.90;;;;;;5078993;28;20227;-77
2023/01/18 06:28:41;;;;;;;6.60;5.93;;;4.00;99.90;;;;;;5086399;28;20516;-80
2023/01/18 06:31:10;;;;;;;9.60;6.78;;;4.00;99.90;;;;;;5084058;28;20285;-80
2023/01/18 06:33:40;;;;;;;10.23;7.07;;;4.00;99.90;;;;;;5075072;28;20232;-78
2023/01/18 06:36:07;;;;;;;10.43;6.65;;;4.10;99.90;;;;;;5077928;28;20243;-78
2023/01/18 06:38:37;;;;;;;7.85;7.07;;;4.10;99.90;;;;;;5082127;28;20231;-79
2023/01/18 06:41:05;;;;;;;9.88;7.10;;;4.10;99.90;;;;;;5078078;28;20252;-78
2023/01/18 06:43:32;;;;;;;7.93;5.57;;;4.10;99.90;;;;;;5080259;28;20223;-79
2023/01/18 06:45:59;;;;;;;7.35;6.07;;;4.10;99.90;;;;;;5079573;28;20254;-79
2023/01/18 06:48:30;;;;;;;7.93;6.43;;;4.10;99.90;;;;;;5084620;28;20237;-77
2023/01/18 06:51:00;;;;;;;10.68;8.00;;;4.10;99.90;;;;;;5078864;28;20246;-77
2023/01/18 06:53:27;;;;;;;8.15;6.45;;;4.10;99.90;;;;;;5077218;28;20247;-77
2023/01/18 06:55:58;;;;;;;11.52;6.95;;;4.10;99.90;;;;;;5082282;28;20254;-79
2023/01/18 06:58:33;;;;;;;6.28;5.68;;;4.10;99.90;;;;;;5076826;28;20227;-78
2023/01/18 07:01:00;;;;;;;9.20;6.25;;;4.20;99.90;;;;;;5074219;28;20258;-78
2023/01/18 07:03:29;;;;;;;6.68;5.35;;;4.10;99.90;;;;;;5083285;28;20227;-80
2023/01/18 07:06:08;;;;;;;7.40;5.55;;;4.10;99.90;;;;;;5076522;28;20232;-77
2023/01/18 07:08:35;;;;;;;8.65;5.72;;;4.10;99.90;;;;;;5073219;28;20224;-77
2023/01/18 07:11:10;;;;;;;6.53;5.32;;;4.00;99.90;;;;;;5074814;28;20281;-76
2023/01/18 07:13:39;;;;;;;5.55;5.00;;;4.00;99.90;;;;;;5072999;28;20223;-77
2023/01/18 07:16:07;;;;;;;6.75;5.78;;;4.00;99.90;;;;;;5075745;28;20300;-80
2023/01/18 07:18:38;;;;;;;7.45;5.25;;;4.00;99.90;;;;;;5079117;28;20252;-77
2023/01/18 07:21:07;;;;;;;5.40;4.95;;;4.00;99.90;;;;;;5076251;28;20236;-77
2023/01/18 07:23:36;;;;;;;4.80;4.20;;;4.00;99.90;;;;;;5073594;28;20299;-77
2023/01/18 07:26:04;;;;;;;6.40;5.80;;;4.00;99.90;;;;;;5073846;28;20232;-77
2023/01/18 07:28:33;;;;;;;6.10;4.53;;;4.00;99.90;;;;;;5074494;28;20278;-77
2023/01/18 07:31:00;;;;;;;10.35;4.60;;;4.00;99.90;;;;;;5074379;28;20277;-79
2023/01/18 07:33:28;;;;;;;7.28;5.47;;;4.00;99.90;;;;;;5074858;28;20270;-78
2023/01/18 07:35:59;;;;;;;5.10;4.05;;;4.00;99.90;;;;;;5073537;28;20293;-78
2023/01/18 07:38:29;;;;;;;7.13;4.40;;;4.00;99.90;;;;;;5072258;28;20315;-78
2023/01/18 07:41:02;;;;;;;5.70;4.82;;;4.00;99.90;;;;;;5073742;28;20632;-81
2023/01/18 07:43:29;;;;;;;7.53;5.07;;;4.10;99.90;;;;;;5073462;28;20561;-79
2023/01/18 07:45:57;;;;;;;5.93;4.88;;;4.10;99.90;;;;;;5073518;28;20232;-76
2023/01/18 07:48:24;;;;;;;9.70;5.53;;;4.20;99.90;;;;;;5061019;28;20242;-79
2023/01/18 07:50:55;;;;;;;8.23;5.50;;;4.20;99.90;;;;;;5077436;28;20230;-79
2023/01/18 07:53:30;;;;;;;8.05;5.43;;;4.20;99.90;;;;;;5077355;28;20227;-78
2023/01/18 07:56:03;;;;;;;5.43;4.68;;;4.30;99.90;;;;;;5077712;28;20255;-79
2023/01/18 07:58:30;;;;;;;6.47;4.43;;;4.30;99.90;;;;;;5076326;28;20230;-77
2023/01/18 08:01:03;;;;;;;6.18;4.50;;;4.40;99.90;;;;;;5077238;28;20224;-79
2023/01/18 08:03:32;;;;;;;4.57;4.07;;;4.40;99.90;;;;;;5076236;28;20216;-80
2023/01/18 08:06:04;;;;;;;6.68;4.45;;;4.50;99.90;;;;;;5077064;28;20289;-80
2023/01/18 08:08:31;;;;;;;4.18;3.88;;;4.40;99.90;;;;;;5076900;28;20299;-78
2023/01/18 08:11:07;;;;;;;5.78;3.85;;;4.50;99.90;;;;;;5071821;28;20597;-78
2023/01/18 08:13:34;;;;;;;5.80;3.67;;;4.60;99.90;;;;;;5084512;28;20223;-78
2023/01/18 08:16:03;;;;;;;4.57;3.90;;;4.60;99.90;;;;;;5076646;28;20232;-80
2023/01/18 08:18:30;;;;;;;3.78;3.40;;;4.60;99.90;;;;;;5076816;28;20680;-76
2023/01/18 08:20:57;;;;;;;4.55;3.70;;;4.60;99.90;;;;;;5076178;28;20309;-77
2023/01/18 08:23:25;;;;;;;6.30;4.05;;;4.60;99.90;;;;;;5075555;28;20638;-78
2023/01/18 08:25:52;;;;;;;11.98;4.20;;;4.70;99.90;;;;;;5076934;28;20224;-77
2023/01/18 08:28:21;;;;;;;10.75;4.20;;;4.70;99.90;;;;;;5075794;28;20224;-78
2023/01/18 08:30:49;;;;;;;7.85;5.50;;;4.70;99.90;;;;;;5076908;28;20227;-79
2023/01/18 08:33:18;;;;;;;8.70;4.40;;;4.70;99.90;;;;;;5077040;28;20226;-77
2023/01/18 08:35:47;;;;;;;6.22;4.68;;;4.70;99.90;;;;;;5076169;28;20231;-77
2023/01/18 08:38:16;;;;;;;6.68;4.00;;;4.80;99.90;;;;;;5075474;28;20227;-78
2023/01/18 08:40:46;;;;;;;9.38;4.95;;;4.90;99.90;;;;;;5077015;28;20254;-79
2023/01/18 08:43:15;;;;;;;5.38;4.57;;;4.90;99.90;;;;;;5076996;28;20220;-79
2023/01/18 08:45:44;;;;;;;9.75;5.68;;;4.90;99.90;;;;;;5076433;28;20553;-79
2023/01/18 08:48:11;;;;;;;5.07;4.13;;;4.90;99.90;;;;;;5072777;28;20223;-77
2023/01/18 08:50:46;;;;;;;8.40;5.25;;;4.90;99.90;;;;;;5083707;28;20228;-77
2023/01/18 08:53:16;;;;;;;6.18;4.82;;;5.00;99.90;;;;;;5077249;28;20238;-77
2023/01/18 08:55:46;;;;;;;5.10;4.30;;;5.00;99.90;;;;;;5067995;28;20220;-77
2023/01/18 08:58:12;;;;;;;5.40;4.47;;;5.00;99.90;;;;;;5088489;28;20228;-77
2023/01/18 09:00:39;;;;;;;6.93;4.60;;;5.00;99.90;;;;;;5074513;28;20542;-77
2023/01/18 09:03:08;;;;;;;6.72;5.45;;;5.10;99.90;;;;;;5076338;28;20220;-79
2023/01/18 09:05:36;;;;;;;5.57;4.28;;;5.10;99.90;;;;;;5077609;28;20285;-77
2023/01/18 09:08:03;;;;;;;7.00;4.43;;;5.20;99.90;;;;;;5076640;28;20224;-76
2023/01/18 09:10:31;;;;;;;5.95;4.43;;;5.20;99.90;;;;;;5066375;28;20224;-77
2023/01/18 09:12:58;;;;;;;5.40;4.90;;;5.20;99.90;;;;;;5076026;28;20607;-76
2023/01/18 09:15:25;;;;;;;4.93;4.50;;;5.20;99.90;;;;;;5077360;28;20605;-77
2023/01/18 09:17:53;;;;;;;9.48;5.90;;;5.30;99.90;;;;;;5076265;28;20228;-77
2023/01/18 09:20:24;;;;;;;8.05;5.53;;;5.30;99.90;;;;;;5075521;28;20224;-77
2023/01/18 09:22:52;;;;;;;8.40;4.65;;;5.20;99.90;;;;;;5076649;28;20239;-79
2023/01/18 09:25:19;;;;;;;4.72;4.32;;;5.30;99.90;;;;;;5075795;28;20680;-78
2023/01/18 09:27:46;;;;;;;10.05;6.35;;;5.30;99.90;;;;;;5085660;28;20236;-76
2023/01/18 09:30:15;;;;;;;8.73;6.00;;;5.30;99.90;;;;;;5069657;28;20716;-78
2023/01/18 09:32:43;;;;;;;7.00;5.40;;;5.30;99.90;;;;;;5078117;28;20628;-78
2023/01/18 09:35:10;;;;;;;5.78;4.97;;;5.30;99.90;;;;;;5077211;28;20569;-76
2023/01/18 09:37:39;;;;;;;8.10;5.93;;;5.30;99.90;;;;;;5076991;28;20224;-78
2023/01/18 09:40:11;;;;;;;5.50;5.00;;;5.30;99.90;;;;;;5080721;28;20365;-78
2023/01/18 09:42:43;;;;;;;7.95;5.60;;;5.40;99.90;;;;;;5081742;28;20216;-77
2023/01/18 09:45:22;;;;;;;6.35;4.65;;;5.30;99.90;;;;;;5080587;28;20227;-78
2023/01/18 09:47:55;;;;;;;6.93;5.88;;;5.30;99.90;;;;;;5076785;28;20223;-78
2023/01/18 09:50:23;;;;;;;9.98;5.60;;;5.30;99.90;;;;;;5075477;28;20224;-76
2023/01/18 09:52:57;;;;;;;10.85;5.68;;;5.30;99.90;;;;;;5075074;28;20219;-79
2023/01/18 09:55:33;;;;;;;7.30;5.45;;;5.30;99.90;;;;;;5075348;28;20234;-77
2023/01/18 09:58:13;;;;;;;7.80;6.10;;;5.30;99.90;;;;;;5080384;28;20566;-79
2023/01/18 10:00:44;;;;;;;7.40;5.95;;;5.40;99.90;;;;;;5073686;28;20219;-77
2023/01/18 10:03:34;;;;;;;4.53;3.97;;;5.40;99.90;;;;;;5063196;28;20228;-80
2023/01/18 10:06:10;;;;;;;5.18;4.55;;;5.40;99.90;;;;;;5076074;28;20228;-80
2023/01/18 10:08:48;;;;;;;9.60;5.57;;;5.40;99.90;;;;;;5074727;28;20306;-80
2023/01/18 10:11:21;;;;;;;5.90;5.05;;;5.40;99.90;;;;;;5076478;28;20227;-80
2023/01/18 10:13:57;;;;;;;7.55;5.32;;;5.40;99.90;;;;;;5075426;28;20276;-80
2023/01/18 10:16:26;;;;;;;12.60;5.80;;;5.50;99.90;;;;;;5074783;28;20665;-80
2023/01/18 10:18:57;;;;;;;5.93;4.88;;;5.50;99.90;;;;;;5074714;28;20293;-78
2023/01/18 10:21:31;;;;;;;5.45;4.45;;;5.50;99.90;;;;;;5074423;28;20231;-80
2023/01/18 10:24:21;;;;;;;9.20;5.80;;;5.60;99.90;;;;;;5074201;28;20709;-79
2023/01/18 10:26:51;;;;;;;8.43;5.35;;;5.60;99.90;;;;;;5073708;28;20228;-78
2023/01/18 10:29:30;;;;;;;8.25;5.45;;;5.60;99.90;;;;;;5074558;28;20228;-78
2023/01/18 10:32:01;;;;;;;5.82;4.15;;;5.60;99.90;;;;;;5074948;28;20224;-77
2023/01/18 10:34:32;;;;;;;7.43;4.70;;;5.60;99.90;;;;;;5074377;28;20315;-76
2023/01/18 10:37:13;;;;;;;5.78;5.00;;;5.60;99.90;;;;;;5075493;28;20252;-76
2023/01/18 10:39:47;;;;;;;5.53;4.55;;;5.60;99.90;;;;;;5081239;28;20228;-78
2023/01/18 10:42:20;;;;;;;6.00;5.00;;;5.60;99.90;;;;;;5082237;28;20230;-79
2023/01/18 10:44:48;;;;;;;7.97;5.03;;;5.70;99.90;;;;;;5086735;28;20220;-79
2023/01/18 10:47:18;;;;;;;6.35;4.90;;;5.70;99.90;;;;;;5088764;28;20254;-76
2023/01/18 10:49:47;;;;;;;6.95;5.47;;;5.70;99.90;;;;;;5092849;28;20270;-77
2023/01/18 10:52:26;;;;;;;7.28;5.03;;;5.70;99.90;;;;;;5084620;28;20220;-80
2023/01/18 10:54:57;;;;;;;5.60;5.10;;;5.80;99.90;;;;;;5093530;28;20211;-79
2023/01/18 10:57:28;;;;;;;6.78;4.97;;;5.80;99.90;;;;;;5101795;28;20211;-77
2023/01/18 10:59:59;;;;;;;7.43;5.03;;;5.80;99.90;;;;;;5111314;28;20314;-78
2023/01/18 11:02:30;;;;;;;5.20;4.35;;;5.80;99.90;;;;;;5112825;28;20319;-79
2023/01/18 11:05:01;;;;;;;5.40;4.65;;;5.90;99.90;;;;;;5117843;28;20203;-78
2023/01/18 11:07:30;;;;;;;5.07;4.60;;;5.90;99.90;;;;;;5133600;28;20218;-79
2023/01/18 11:10:05;;;;;;;7.22;4.97;;;5.90;99.90;;;;;;5134722;27;20231;-79
2023/01/18 11:12:36;;;;;;;4.53;3.88;;;5.90;99.90;;;;;;5131820;28;20247;-77
2023/01/18 11:15:22;;;;;;;6.63;4.35;;;5.90;99.90;;;;;;5127767;28;20222;-79
2023/01/18 11:18:01;;;;;;;7.78;4.68;;;6.00;99.90;;;;;;5120550;28;20253;-76
2023/01/18 11:20:33;;;;;;;6.80;5.35;;;6.00;99.90;;;;;;5117799;28;20317;-79
2023/01/18 11:23:04;;;;;;;6.53;4.32;;;5.90;99.90;;;;;;5117436;28;20259;-79
2023/01/18 11:25:40;;;;;;;4.93;4.43;;;6.00;99.90;;;;;;5117263;28;20223;-79
2023/01/18 11:28:16;;;;;;;6.03;4.82;;;6.00;99.90;;;;;;5118694;28;20246;-79
2023/01/18 11:30:51;;;;;;;6.35;4.80;;;6.00;99.90;;;;;;5110342;28;20305;-78
2023/01/18 11:33:21;;;;;;;7.78;5.90;;;5.90;99.90;;;;;;5100913;28;20230;-76
2023/01/18 11:35:54;;;;;;;6.10;4.82;;;5.90;99.90;;;;;;5093329;28;20251;-77
2023/01/18 11:38:25;;;;;;;5.32;4.05;;;5.90;99.90;;;;;;5094534;28;20223;-80
2023/01/18 11:41:04;;;;;;;5.85;5.10;;;6.00;99.90;;;;;;5093386;28;20224;-77
2023/01/18 11:43:33;;;;;;;6.55;5.55;;;5.90;99.90;;;;;;5093403;28;20238;-77
2023/01/18 11:46:09;;;;;;;5.53;5.03;;;6.00;99.90;;;;;;5104941;28;20218;-78
2023/01/18 11:48:42;;;;;;;10.27;5.30;;;5.90;99.90;;;;;;5099747;28;20283;-79
2023/01/18 11:51:18;;;;;;;6.65;5.10;;;6.00;99.90;;;;;;5114505;28;20226;-79
2023/01/18 11:53:58;;;;;;;7.32;4.13;;;6.00;99.90;;;;;;5112101;28;20314;-79
2023/01/18 11:56:36;;;;;;;12.38;5.30;;;6.00;99.90;;;;;;5112155;28;20305;-79
2023/01/18 11:59:05;;;;;;;8.68;5.25;;;6.00;99.90;;;;;;5110934;28;21895;-79
2023/01/18 12:01:59;;;;;;;7.80;3.95;;;6.00;99.90;;;;;;5112333;28;20229;-78
2023/01/18 12:04:41;;;;;;;7.55;5.47;;;6.00;99.90;;;;;;5085534;28;20239;-78
2023/01/18 12:07:24;;;;;;;6.68;5.40;;;6.00;99.90;;;;;;5091948;28;20226;-77
2023/01/18 12:09:54;;;;;;;10.15;5.15;;;6.00;99.90;;;;;;5091326;28;20287;-77
2023/01/18 12:12:37;;;;;;;8.88;5.13;;;6.00;99.90;;;;;;5092652;28;20284;-79
2023/01/18 12:15:52;;;;;;;8.68;5.10;;;6.00;99.90;;;;;;5083999;28;20223;-79
2023/01/18 12:18:32;;;;;;;5.97;4.57;;;6.00;99.90;;;;;;5072430;28;20303;-79
2023/01/18 12:21:07;;;;;;;3.67;3.17;;;6.00;99.90;;;;;;5071824;28;20232;-79
2023/01/18 12:23:59;;;;;;;7.70;4.75;;;6.00;99.90;;;;;;5073136;28;20230;-77
2023/01/18 12:26:37;;;;;;;5.30;4.55;;;6.10;99.90;;;;;;5073797;28;20310;-78
2023/01/18 12:29:35;;;;;;;5.15;3.80;;;6.00;99.90;;;;;;5112181;28;20258;-78
2023/01/18 12:32:17;;;;;;;5.47;4.45;;;6.00;99.90;;;;;;5112397;28;20215;-77
2023/01/18 12:34:53;;;;;;;6.63;4.55;;;6.00;99.90;;;;;;5113009;28;20275;-78
2023/01/18 12:37:36;;;;;;;5.78;4.43;;;6.00;99.90;;;;;;5116460;28;20623;-77
2023/01/18 12:40:30;;;;;;;6.25;4.50;;;6.00;99.90;;;;;;5116669;28;20306;-77
2023/01/18 12:43:05;;;;;;;6.93;4.50;;;6.00;99.90;;;;;;5091389;28;20692;-76
2023/01/18 12:45:40;;;;;;;12.07;4.80;;;6.10;99.90;;;;;;5096754;28;20222;-80
2023/01/18 12:48:15;;;;;;;8.00;4.22;;;6.00;99.90;;;;;;5096867;28;20219;-80
2023/01/18 12:50:46;;;;;;;7.45;3.70;;;6.00;99.90;;;;;;5112139;28;20253;-80
2023/01/18 12:53:18;;;;;;;6.10;3.88;;;6.00;99.90;;;;;;5088975;28;20531;-78
2023/01/18 12:55:50;;;;;;;4.78;4.35;;;6.00;99.90;;;;;;5099796;28;20653;-80
2023/01/18 12:58:24;;;;;;;5.80;4.47;;;6.10;99.90;;;;;;5095895;28;20219;-79
2023/01/18 13:00:58;;;;;;;6.22;3.97;;;6.00;99.90;;;;;;5096420;28;20248;-77
2023/01/18 13:03:29;;;;;;;4.60;4.20;;;6.10;99.90;;;;;;5095352;28;20230;-76
2023/01/18 13:05:59;;;;;;;8.93;4.10;;;6.00;99.90;;;;;;5096221;28;20246;-77
2023/01/18 13:08:38;;;;;;;4.03;3.63;;;6.00;99.90;;;;;;5095985;28;20276;-76
2023/01/18 13:11:10;;;;;;;9.23;3.17;;;6.10;99.90;;;;;;5094780;28;20238;-80
2023/01/18 13:13:39;;;;;;;3.28;2.85;;;6.10;99.90;;;;;;5096117;28;20246;-77
2023/01/18 13:16:17;;;;;;;3.63;3.33;;;6.10;99.90;;;;;;5094341;28;20231;-79
2023/01/18 13:18:52;;;;;;;5.70;4.10;;;6.10;99.90;;;;;;5096672;28;20593;-79
2023/01/18 13:21:30;;;;;;;6.18;4.00;;;6.10;99.90;;;;;;5094851;28;20229;-76
2023/01/18 13:24:09;;;;;;;7.40;4.43;;;6.10;99.90;;;;;;5095928;28;20223;-77
2023/01/18 13:26:37;;;;;;;7.50;4.30;;;6.10;99.90;;;;;;5115320;27;20219;-77
2023/01/18 13:29:15;;;;;;;6.85;5.30;;;6.00;99.90;;;;;;5114538;28;20238;-79
2023/01/18 13:31:44;;;;;;;7.28;4.65;;;6.00;99.90;;;;;;5115405;28;20227;-80
2023/01/18 13:34:31;;;;;;;7.57;4.15;;;6.00;99.90;;;;;;5116473;28;20222;-78
2023/01/18 13:36:59;;;;;;;7.57;5.97;;;6.00;99.90;;;;;;5116286;27;20297;-79
2023/01/18 13:39:30;;;;;;;5.00;4.15;;;6.00;99.90;;;;;;5115980;28;20309;-77
2023/01/18 13:42:18;;;;;;;8.60;5.05;;;6.00;99.90;;;;;;5115830;28;20227;-77
2023/01/18 13:44:48;;;;;;;7.65;5.15;;;6.00;99.90;;;;;;5115758;28;20668;-78
2023/01/18 13:48:40;;;;;;;5.85;5.10;;;6.10;99.90;;;;;;5105312;28;20237;-79